Time;durP1;ratioP1;P1;durP2;ratioP2;P2;SDS_P1;SDS_P2;PMS_P1;PMS_P2;Temp;Humidity;BMP_temperature;BMP_pressure;BME280_temperature;BME280_humidity;BME280_pressure;Samples;Min_cycle;Max_cycle;Signal;HPM_P1;HPM_P2
2022/10/23 00:00:40;;;;;;;17.40;15.43;;;10.00;99.90;;;;;;7373171;19;20015;-45
2022/10/23 00:03:06;;;;;;;18.52;14.77;;;10.00;99.90;;;;;;7371805;19;20496;-44
2022/10/23 00:05:33;;;;;;;16.00;14.00;;;10.00;99.90;;;;;;7368692;19;20090;-44
2022/10/23 00:07:59;;;;;;;19.73;16.10;;;10.00;99.90;;;;;;7369390;19;20015;-44
2022/10/23 00:10:27;;;;;;;17.70;15.23;;;10.00;99.90;;;;;;7369081;19;20029;-44
2022/10/23 00:12:54;;;;;;;21.38;16.80;;;10.00;99.90;;;;;;7364242;19;20348;-45
2022/10/23 00:15:21;;;;;;;22.83;17.52;;;10.00;99.90;;;;;;7370948;19;20015;-44
2022/10/23 00:17:48;;;;;;;25.60;17.48;;;10.00;99.90;;;;;;7371679;19;20030;-45
2022/10/23 00:20:15;;;;;;;18.63;16.35;;;10.00;99.90;;;;;;7372278;19;20405;-45
2022/10/23 00:22:42;;;;;;;22.58;18.52;;;10.10;99.90;;;;;;7366625;19;20010;-48
2022/10/23 00:25:09;;;;;;;18.10;16.10;;;10.10;99.90;;;;;;7372518;19;20331;-45
2022/10/23 00:27:36;;;;;;;21.92;17.92;;;10.10;99.90;;;;;;7372907;19;20070;-45
2022/10/23 00:30:04;;;;;;;20.13;16.10;;;10.10;99.90;;;;;;7374121;19;20025;-44
2022/10/23 00:32:31;;;;;;;24.02;17.33;;;10.10;99.90;;;;;;7375366;19;20018;-44
2022/10/23 00:34:57;;;;;;;22.67;17.88;;;10.10;99.90;;;;;;7378393;19;20014;-46
2022/10/23 00:37:23;;;;;;;24.92;18.20;;;10.10;99.90;;;;;;7365344;19;20449;-43
2022/10/23 00:39:49;;;;;;;19.33;16.48;;;10.10;99.90;;;;;;7365013;19;20376;-44
2022/10/23 00:42:17;;;;;;;19.58;16.20;;;10.10;99.90;;;;;;7371379;19;20023;-45
2022/10/23 00:44:43;;;;;;;21.27;16.63;;;10.10;99.90;;;;;;7377860;19;20015;-44
2022/10/23 00:47:10;;;;;;;17.25;15.00;;;10.10;99.90;;;;;;7372353;19;20482;-45
2022/10/23 00:49:37;;;;;;;16.38;14.55;;;10.10;99.90;;;;;;7378830;19;20042;-43
2022/10/23 00:52:07;;;;;;;26.50;17.63;;;10.10;99.90;;;;;;7376544;19;20018;-43
2022/10/23 00:54:38;;;;;;;24.42;17.48;;;10.10;99.90;;;;;;7379951;19;20622;-48
2022/10/23 00:57:11;;;;;;;18.42;14.77;;;10.00;99.90;;;;;;7373920;19;20021;-47
2022/10/23 00:59:39;;;;;;;22.77;17.35;;;10.00;99.90;;;;;;7374792;19;20021;-48
2022/10/23 01:02:06;;;;;;;22.10;16.33;;;9.90;99.90;;;;;;7374855;19;20470;-47
2022/10/23 01:04:32;;;;;;;25.10;17.35;;;10.00;99.90;;;;;;7372526;19;20018;-46
2022/10/23 01:07:37;;;;;;;25.05;17.67;;;10.00;99.90;;;;;;7372837;19;20034;-50
2022/10/23 01:10:18;;;;;;;22.30;17.60;;;10.10;99.90;;;;;;7368474;19;20026;-45
2022/10/23 01:13:11;;;;;;;25.25;17.63;;;10.10;99.90;;;;;;7377139;19;20023;-44
2022/10/23 01:15:52;;;;;;;27.20;18.67;;;10.20;99.90;;;;;;7378696;19;20023;-44
2022/10/23 01:18:35;;;;;;;27.98;18.55;;;10.20;99.90;;;;;;7377605;19;20045;-44
2022/10/23 01:21:13;;;;;;;24.70;18.58;;;10.30;99.90;;;;;;7374557;19;20018;-47
2022/10/23 01:23:58;;;;;;;25.48;17.75;;;10.30;99.90;;;;;;7376857;19;20029;-44
2022/10/23 01:26:30;;;;;;;26.48;18.40;;;10.30;99.90;;;;;;7370121;19;20018;-46
2022/10/23 01:29:11;;;;;;;25.63;17.73;;;10.30;99.90;;;;;;7365483;19;20114;-46
2022/10/23 01:31:50;;;;;;;25.58;16.80;;;10.30;99.90;;;;;;7372886;19;20763;-46
2022/10/23 01:34:31;;;;;;;18.13;15.82;;;10.30;99.90;;;;;;7377704;19;20875;-50
2022/10/23 01:37:01;;;;;;;17.23;14.50;;;10.30;99.90;;;;;;7377273;19;20085;-46
2022/10/23 01:39:34;;;;;;;20.10;15.55;;;10.20;99.90;;;;;;7377261;19;20039;-46
2022/10/23 01:42:14;;;;;;;17.25;15.38;;;10.20;99.90;;;;;;7372567;19;20462;-46
2022/10/23 01:44:45;;;;;;;17.60;14.65;;;10.10;99.90;;;;;;7376349;19;20018;-46
2022/10/23 01:47:16;;;;;;;14.60;13.02;;;10.10;99.90;;;;;;7374464;19;20454;-47
2022/10/23 01:49:55;;;;;;;16.23;13.23;;;10.10;99.90;;;;;;7375703;19;20025;-47
2022/10/23 01:52:22;;;;;;;18.00;14.93;;;10.00;99.90;;;;;;7375154;19;20399;-50
2022/10/23 01:54:52;;;;;;;16.73;14.73;;;10.00;99.90;;;;;;7376486;19;20021;-48
2022/10/23 01:57:20;;;;;;;19.27;15.38;;;9.90;99.90;;;;;;7372276;19;20027;-48
2022/10/23 01:59:52;;;;;;;20.63;15.35;;;10.00;99.90;;;;;;7375296;19;20023;-48
2022/10/23 02:02:21;;;;;;;18.97;14.43;;;9.90;99.90;;;;;;7369020;19;20026;-49
2022/10/23 02:04:55;;;;;;;24.60;17.77;;;9.90;99.90;;;;;;7372986;19;20082;-50
2022/10/23 02:07:22;;;;;;;16.38;14.43;;;9.90;99.90;;;;;;7366398;19;20010;-50
2022/10/23 02:09:49;;;;;;;16.67;14.50;;;9.90;99.90;;;;;;7370868;19;20369;-50
2022/10/23 02:12:36;;;;;;;17.48;15.02;;;9.90;99.90;;;;;;7367734;19;20014;-45
2022/10/23 02:15:11;;;;;;;18.02;14.93;;;9.90;99.90;;;;;;7373575;19;20078;-49
2022/10/23 02:18:08;;;;;;;21.10;16.95;;;9.80;99.90;;;;;;7372139;19;20022;-46
2022/10/23 02:20:52;;;;;;;26.08;18.73;;;9.90;99.90;;;;;;7374680;19;20752;-46
2022/10/23 02:23:27;;;;;;;24.73;17.05;;;9.90;99.90;;;;;;7375621;19;20026;-44
2022/10/23 02:26:00;;;;;;;18.20;14.73;;;9.90;99.90;;;;;;7373501;19;20014;-45
2022/10/23 02:28:33;;;;;;;20.42;15.95;;;9.80;99.90;;;;;;7373880;19;20019;-45
2022/10/23 02:31:04;;;;;;;18.27;14.35;;;9.80;99.90;;;;;;7372592;19;20086;-48
2022/10/23 02:33:32;;;;;;;17.17;15.35;;;9.70;99.90;;;;;;7366514;19;20023;-47
2022/10/23 02:35:58;;;;;;;19.25;15.00;;;9.70;99.90;;;;;;7367880;19;20019;-49
2022/10/23 02:38:42;;;;;;;26.88;19.92;;;9.80;99.90;;;;;;7364979;19;20038;-46
2022/10/23 02:41:32;;;;;;;32.97;22.40;;;9.80;99.90;;;;;;7368361;19;20022;-46
2022/10/23 02:44:04;;;;;;;24.50;19.10;;;9.90;99.90;;;;;;7374722;19;20029;-45
2022/10/23 02:46:48;;;;;;;21.27;16.92;;;9.90;99.90;;;;;;7374177;19;20588;-47
2022/10/23 02:49:33;;;;;;;22.50;18.23;;;9.80;99.90;;;;;;7371697;19;20049;-46
2022/10/23 02:52:07;;;;;;;20.90;17.15;;;9.80;99.90;;;;;;7369768;19;20465;-46
2022/10/23 02:54:56;;;;;;;21.27;16.10;;;9.80;99.90;;;;;;7374360;19;20502;-45
2022/10/23 02:57:38;;;;;;;20.33;16.52;;;9.80;99.90;;;;;;7366199;19;20498;-45
2022/10/23 03:00:11;;;;;;;22.38;18.00;;;9.80;99.90;;;;;;7372874;19;20031;-42
2022/10/23 03:02:43;;;;;;;21.73;16.73;;;9.70;99.90;;;;;;7368853;19;20018;-45
2022/10/23 03:05:24;;;;;;;19.73;16.92;;;9.70;99.90;;;;;;7366386;19;20086;-45
2022/10/23 03:07:51;;;;;;;23.85;18.10;;;9.70;99.90;;;;;;7363856;19;20010;-46
2022/10/23 03:10:17;;;;;;;21.05;17.77;;;9.70;99.90;;;;;;7370793;19;20015;-46
2022/10/23 03:12:47;;;;;;;23.90;17.27;;;9.70;99.90;;;;;;7374511;19;20014;-49
2022/10/23 03:15:15;;;;;;;24.80;19.63;;;9.60;99.90;;;;;;7371775;19;20018;-42
2022/10/23 03:17:42;;;;;;;26.13;19.33;;;9.70;99.90;;;;;;7372902;19;20055;-45
2022/10/23 03:20:09;;;;;;;26.33;19.35;;;9.70;99.90;;;;;;7372430;19;20027;-45
2022/10/23 03:22:35;;;;;;;24.38;18.50;;;9.70;99.90;;;;;;7373091;19;20034;-46
2022/10/23 03:25:01;;;;;;;28.88;20.85;;;9.70;99.90;;;;;;7371663;19;20487;-45
2022/10/23 03:27:30;;;;;;;32.47;21.33;;;9.80;99.90;;;;;;7368383;19;20063;-44
2022/10/23 03:29:58;;;;;;;32.72;23.50;;;9.80;99.90;;;;;;7361045;19;20097;-45
2022/10/23 03:32:24;;;;;;;36.53;25.77;;;9.80;99.90;;;;;;7364178;19;20062;-46
2022/10/23 03:34:50;;;;;;;39.42;26.13;;;9.90;99.90;;;;;;7362834;19;20018;-46
2022/10/23 03:37:16;;;;;;;39.92;26.13;;;9.90;99.90;;;;;;7364798;19;20039;-43
2022/10/23 03:39:43;;;;;;;45.70;27.33;;;10.00;99.90;;;;;;7365216;19;20035;-44
2022/10/23 03:42:09;;;;;;;36.05;27.10;;;10.10;99.90;;;;;;7365433;19;20022;-45
2022/10/23 03:44:35;;;;;;;38.42;26.80;;;10.10;99.90;;;;;;7364750;19;20048;-43
2022/10/23 03:47:03;;;;;;;45.15;27.75;;;10.10;99.90;;;;;;7369428;19;20026;-43
2022/10/23 03:49:29;;;;;;;43.70;27.42;;;10.20;99.90;;;;;;7371000;19;20035;-44
2022/10/23 03:52:03;;;;;;;42.50;28.48;;;10.20;99.90;;;;;;7369226;19;20098;-44
2022/10/23 03:54:29;;;;;;;41.33;26.88;;;10.20;99.90;;;;;;7371586;19;20031;-43
2022/10/23 03:56:56;;;;;;;38.08;25.42;;;10.10;99.90;;;;;;7370756;19;20018;-48
2022/10/23 03:59:22;;;;;;;37.55;26.00;;;10.20;99.90;;;;;;7370515;19;20082;-44
2022/10/23 04:01:49;;;;;;;41.47;26.65;;;10.20;99.90;;;;;;7367538;19;20045;-45
2022/10/23 04:04:16;;;;;;;42.63;26.60;;;10.20;99.90;;;;;;7368939;19;20019;-43
2022/10/23 04:06:42;;;;;;;39.67;26.27;;;10.20;99.90;;;;;;7367418;19;20026;-44
2022/10/23 04:09:09;;;;;;;40.35;26.20;;;10.20;99.90;;;;;;7364254;19;20025;-43
2022/10/23 04:11:35;;;;;;;38.55;25.50;;;10.20;99.90;;;;;;7366490;19;20092;-43
2022/10/23 04:14:02;;;;;;;43.15;26.08;;;10.20;99.90;;;;;;7369438;19;20022;-44
2022/10/23 04:16:28;;;;;;;42.15;26.00;;;10.20;99.90;;;;;;7369508;19;20388;-45
2022/10/23 04:18:54;;;;;;;30.38;22.88;;;10.30;99.90;;;;;;7366722;19;20497;-45
2022/10/23 04:21:22;;;;;;;36.88;25.02;;;10.30;99.90;;;;;;7370069;19;20513;-46
2022/10/23 04:23:48;;;;;;;36.78;24.90;;;10.30;99.90;;;;;;7368790;19;20018;-47
2022/10/23 04:26:17;;;;;;;35.92;23.63;;;10.30;99.90;;;;;;7368987;19;20026;-47
2022/10/23 04:28:43;;;;;;;33.75;23.45;;;10.30;99.90;;;;;;7365166;19;20026;-48
2022/10/23 04:31:09;;;;;;;38.65;23.92;;;10.30;99.90;;;;;;7367830;19;20041;-49
2022/10/23 04:33:40;;;;;;;28.85;21.45;;;10.20;99.90;;;;;;7363423;19;20117;-45
2022/10/23 04:36:07;;;;;;;34.80;23.05;;;10.20;99.90;;;;;;7358636;19;20503;-46
2022/10/23 04:38:33;;;;;;;34.72;24.02;;;10.20;99.90;;;;;;7363722;19;20545;-49
2022/10/23 04:41:00;;;;;;;31.75;23.02;;;10.10;99.90;;;;;;7360522;19;20600;-43
2022/10/23 04:43:28;;;;;;;32.33;22.98;;;10.20;99.90;;;;;;7362515;19;20039;-44
2022/10/23 04:45:56;;;;;;;33.80;22.88;;;10.10;99.90;;;;;;7369777;19;20050;-44
2022/10/23 04:48:22;;;;;;;36.10;23.30;;;10.10;99.90;;;;;;7372485;19;20014;-46
2022/10/23 04:51:07;;;;;;;31.20;22.55;;;10.10;99.90;;;;;;7371631;19;20015;-50
2022/10/23 04:54:05;;;;;;;27.00;20.88;;;10.10;99.90;;;;;;7368266;19;20038;-44
2022/10/23 04:57:01;;;;;;;24.58;18.67;;;10.00;99.90;;;;;;7371999;19;20382;-45
2022/10/23 04:59:36;;;;;;;24.25;19.33;;;9.90;99.90;;;;;;7371615;19;20116;-44
2022/10/23 05:02:03;;;;;;;25.60;18.95;;;9.80;99.90;;;;;;7368374;19;20029;-44
2022/10/23 05:04:30;;;;;;;28.77;21.52;;;9.80;99.90;;;;;;7368645;19;20014;-43
2022/10/23 05:07:16;;;;;;;30.50;23.30;;;9.80;99.90;;;;;;7365275;19;20015;-46
2022/10/23 05:09:58;;;;;;;27.83;21.95;;;9.80;99.90;;;;;;7366185;19;20031;-49
2022/10/23 05:12:29;;;;;;;36.58;24.30;;;9.80;99.90;;;;;;7367632;19;20055;-44
2022/10/23 05:14:56;;;;;;;33.22;22.52;;;9.80;99.90;;;;;;7367931;19;20031;-47
2022/10/23 05:17:33;;;;;;;34.20;22.42;;;9.80;99.90;;;;;;7375033;19;20568;-45
2022/10/23 05:20:06;;;;;;;39.45;23.65;;;9.80;99.90;;;;;;7374756;19;20061;-47
2022/10/23 05:22:37;;;;;;;39.58;24.70;;;9.80;99.90;;;;;;7379570;19;20025;-49
2022/10/23 05:25:06;;;;;;;40.20;24.50;;;9.80;99.90;;;;;;7376532;19;20019;-45
2022/10/23 05:27:33;;;;;;;33.90;24.85;;;9.80;99.90;;;;;;7374063;19;20018;-43
2022/10/23 05:30:02;;;;;;;37.05;24.23;;;9.80;99.90;;;;;;7373142;19;20018;-43
2022/10/23 05:32:33;;;;;;;38.55;26.13;;;9.90;99.90;;;;;;7375517;19;20014;-42
2022/10/23 05:35:01;;;;;;;34.03;24.60;;;9.90;99.90;;;;;;7371687;19;20010;-47
2022/10/23 05:37:30;;;;;;;39.75;25.25;;;9.90;99.90;;;;;;7367802;19;20387;-50
2022/10/23 05:40:08;;;;;;;33.83;23.33;;;10.00;99.90;;;;;;7364212;19;20018;-48
2022/10/23 05:42:36;;;;;;;35.97;23.45;;;10.00;99.90;;;;;;7365071;19;20363;-49
2022/10/23 05:45:06;;;;;;;43.72;25.20;;;10.10;99.90;;;;;;7368745;19;20019;-48
2022/10/23 05:47:45;;;;;;;34.50;24.55;;;10.10;99.90;;;;;;7370848;19;20033;-45
2022/10/23 05:50:26;;;;;;;;;;;10.10;99.90;;;;;;7370884;19;20018;-43
2022/10/23 05:53:11;;;;;;;34.58;22.60;;;10.10;99.90;;;;;;7375665;19;19974;-43
2022/10/23 05:55:55;;;;;;;28.85;21.38;;;10.10;99.90;;;;;;7375665;19;20094;-43
2022/10/23 05:58:46;;;;;;;35.03;22.65;;;10.10;99.90;;;;;;7371857;19;20112;-47
2022/10/23 06:01:23;;;;;;;28.55;20.52;;;10.10;99.90;;;;;;7374566;19;20015;-50
2022/10/23 06:04:05;;;;;;;34.67;22.75;;;10.10;99.90;;;;;;7371121;19;20014;-46
2022/10/23 06:06:53;;;;;;;36.83;24.27;;;10.10;99.90;;;;;;7368286;19;20380;-47
2022/10/23 06:09:20;;;;;;;33.65;23.08;;;10.10;99.90;;;;;;7370065;19;20034;-51
2022/10/23 06:11:49;;;;;;;35.55;23.27;;;10.10;99.90;;;;;;7370097;19;20026;-50
2022/10/23 06:14:19;;;;;;;39.38;24.55;;;10.20;99.90;;;;;;7369682;19;20064;-44
2022/10/23 06:16:48;;;;;;;39.25;22.83;;;10.20;99.90;;;;;;7371985;19;20026;-46
2022/10/23 06:19:15;;;;;;;34.00;21.70;;;10.20;99.90;;;;;;7371554;19;20042;-50
2022/10/23 06:21:42;;;;;;;33.58;22.95;;;10.20;99.90;;;;;;7377625;19;20018;-49
2022/10/23 06:24:10;;;;;;;32.00;21.23;;;10.20;99.90;;;;;;7372797;19;20045;-51
2022/10/23 06:26:44;;;;;;;31.00;21.02;;;10.30;99.90;;;;;;7373463;19;20499;-47
2022/10/23 06:29:17;;;;;;;34.05;21.98;;;10.30;99.90;;;;;;7373052;19;20015;-50
2022/10/23 06:31:43;;;;;;;34.72;21.35;;;10.30;99.90;;;;;;7373981;19;20391;-48
2022/10/23 06:34:11;;;;;;;31.25;21.13;;;10.30;99.90;;;;;;7367002;19;20025;-46
2022/10/23 06:36:38;;;;;;;32.75;22.20;;;10.30;99.90;;;;;;7372736;19;20023;-48
2022/10/23 06:39:23;;;;;;;29.02;20.75;;;10.40;99.90;;;;;;7374286;19;20014;-48
2022/10/23 06:42:03;;;;;;;35.45;22.85;;;10.40;99.90;;;;;;7370411;19;20362;-51
2022/10/23 06:44:48;;;;;;;31.58;21.45;;;10.40;99.90;;;;;;7366704;19;20014;-48
2022/10/23 06:47:22;;;;;;;32.22;21.55;;;10.40;99.90;;;;;;7367181;19;20033;-46
2022/10/23 06:50:07;;;;;;;28.77;20.05;;;10.50;99.90;;;;;;7372970;19;20389;-45
2022/10/23 06:52:33;;;;;;;32.85;20.40;;;10.50;99.90;;;;;;7368624;19;20014;-46
2022/10/23 06:55:00;;;;;;;31.05;20.05;;;10.50;99.90;;;;;;7370498;19;20018;-49
2022/10/23 06:57:33;;;;;;;29.77;20.23;;;10.60;99.90;;;;;;7372206;19;20043;-45
2022/10/23 06:59:59;;;;;;;29.17;18.13;;;10.60;99.90;;;;;;7373708;19;20019;-47
2022/10/23 07:02:26;;;;;;;35.13;20.48;;;10.60;99.90;;;;;;7370843;19;20014;-49
2022/10/23 07:04:53;;;;;;;28.10;18.98;;;10.60;99.90;;;;;;7370454;19;20018;-51
2022/10/23 07:07:20;;;;;;;28.42;18.40;;;10.70;99.90;;;;;;7368525;19;20043;-46
2022/10/23 07:09:48;;;;;;;26.30;18.33;;;10.70;99.90;;;;;;7363680;19;20015;-48
2022/10/23 07:12:24;;;;;;;28.40;19.40;;;10.70;99.90;;;;;;7362772;19;20379;-46
2022/10/23 07:15:04;;;;;;;24.67;18.38;;;10.80;99.90;;;;;;7361167;19;20029;-47
2022/10/23 07:17:30;;;;;;;23.90;17.13;;;10.80;99.90;;;;;;7359879;19;20310;-45
2022/10/23 07:19:57;;;;;;;30.85;17.80;;;10.90;99.90;;;;;;7363661;19;20107;-44
2022/10/23 07:22:24;;;;;;;26.73;16.65;;;10.90;99.90;;;;;;7362878;19;20031;-46
2022/10/23 07:25:25;;;;;;;24.08;17.42;;;11.00;99.90;;;;;;7362616;19;20623;-45
2022/10/23 07:27:54;;;;;;;23.88;16.88;;;11.00;99.90;;;;;;7369784;19;20482;-47
2022/10/23 07:30:23;;;;;;;26.30;16.80;;;11.00;99.90;;;;;;7370612;19;20485;-45
2022/10/23 07:32:53;;;;;;;22.98;15.48;;;11.10;99.90;;;;;;7369815;19;20439;-46
2022/10/23 07:35:34;;;;;;;19.40;16.27;;;11.10;99.90;;;;;;7371628;19;20505;-44
2022/10/23 07:38:07;;;;;;;23.35;17.05;;;11.20;99.90;;;;;;7369445;19;20025;-43
2022/10/23 07:40:37;;;;;;;22.38;15.13;;;11.30;99.90;;;;;;7367839;19;20521;-45
2022/10/23 07:43:04;;;;;;;20.80;14.60;;;11.30;99.90;;;;;;7364717;19;20382;-46
2022/10/23 07:45:30;;;;;;;20.92;14.70;;;11.30;99.90;;;;;;7368586;19;20026;-46
2022/10/23 07:47:59;;;;;;;24.20;15.82;;;11.40;99.90;;;;;;7368235;19;20165;-43
2022/10/23 07:50:32;;;;;;;23.00;16.17;;;11.50;99.90;;;;;;7367487;19;20974;-46
2022/10/23 07:52:58;;;;;;;20.73;16.17;;;11.50;99.90;;;;;;7368572;19;20035;-43
2022/10/23 07:55:33;;;;;;;19.40;13.90;;;11.50;99.90;;;;;;7365680;19;20494;-44
2022/10/23 07:58:08;;;;;;;21.17;13.52;;;11.60;99.90;;;;;;7365176;19;20438;-50
2022/10/23 08:00:44;;;;;;;24.65;14.85;;;11.70;99.90;;;;;;7366493;19;20019;-47
2022/10/23 08:03:20;;;;;;;17.20;13.80;;;11.70;99.90;;;;;;7363447;19;20018;-45
2022/10/23 08:05:47;;;;;;;19.10;14.02;;;11.70;99.90;;;;;;7361967;19;20014;-45
2022/10/23 08:08:14;;;;;;;22.27;13.30;;;11.80;99.90;;;;;;7370767;19;21177;-49
2022/10/23 08:10:49;;;;;;;16.98;13.32;;;11.90;99.90;;;;;;7368409;19;20490;-47
2022/10/23 08:13:22;;;;;;;18.70;12.90;;;11.90;99.90;;;;;;7366949;19;20018;-45
2022/10/23 08:15:55;;;;;;;19.90;12.30;;;12.00;99.90;;;;;;7367969;19;20018;-49
2022/10/23 08:18:44;;;;;;;16.23;12.68;;;12.00;99.90;;;;;;7365487;19;20070;-46
2022/10/23 08:21:13;;;;;;;23.20;13.13;;;12.10;99.90;;;;;;7364963;19;20018;-45
2022/10/23 08:23:40;;;;;;;18.33;11.90;;;12.10;99.90;;;;;;7357840;19;20025;-45
2022/10/23 08:26:07;;;;;;;20.60;12.57;;;12.20;99.90;;;;;;7362017;19;20514;-44
2022/10/23 08:28:35;;;;;;;19.48;12.88;;;12.20;99.90;;;;;;7358220;19;20517;-44
2022/10/23 08:31:09;;;;;;;13.90;11.63;;;12.30;99.90;;;;;;7356523;19;20514;-54
2022/10/23 08:33:36;;;;;;;15.68;11.32;;;12.40;99.90;;;;;;7361688;19;20010;-49
2022/10/23 08:36:02;;;;;;;14.85;11.32;;;12.40;99.90;;;;;;7359755;19;20046;-44
2022/10/23 08:38:34;;;;;;;16.83;11.18;;;12.60;99.90;;;;;;7359392;19;20014;-45
2022/10/23 08:41:01;;;;;;;13.70;10.80;;;12.60;99.90;;;;;;7354681;19;20018;-47
2022/10/23 08:44:15;;;;;;;13.23;10.45;;;12.70;99.90;;;;;;7359399;19;20015;-53
2022/10/23 08:46:58;;;;;;;16.35;10.15;;;12.80;99.90;;;;;;7358956;19;20030;-47
2022/10/23 08:49:55;;;;;;;14.30;10.18;;;12.90;99.90;;;;;;7364813;19;20121;-44
2022/10/23 08:52:30;;;;;;;13.15;9.00;;;13.00;99.90;;;;;;7366621;19;20018;-47
2022/10/23 08:55:06;;;;;;;15.80;10.35;;;13.10;99.90;;;;;;7367175;19;20022;-46
2022/10/23 08:57:37;;;;;;;12.40;9.00;;;13.20;99.90;;;;;;7365572;19;20018;-45
2022/10/23 09:00:12;;;;;;;15.13;9.45;;;13.30;99.90;;;;;;7366690;19;20031;-47
2022/10/23 09:02:43;;;;;;;10.75;8.15;;;13.40;99.90;;;;;;7366399;19;20814;-48
2022/10/23 09:05:35;;;;;;;11.20;8.18;;;13.50;99.90;;;;;;7365960;19;20032;-50
2022/10/23 09:08:27;;;;;;;13.75;8.05;;;13.60;99.90;;;;;;7367582;19;20052;-48
2022/10/23 09:11:35;;;;;;;11.50;7.50;;;13.90;99.90;;;;;;7368811;19;20022;-50
2022/10/23 09:14:01;;;;;;;11.40;7.38;;;14.20;99.90;;;;;;7371055;19;20448;-48
2022/10/23 09:16:42;;;;;;;14.15;7.53;;;14.50;99.90;;;;;;7368244;19;20577;-48
2022/10/23 09:19:16;;;;;;;9.65;6.82;;;14.60;99.90;;;;;;7372170;19;20025;-49
2022/10/23 09:21:48;;;;;;;9.70;7.25;;;14.70;99.90;;;;;;7374586;19;20086;-58
2022/10/23 09:24:19;;;;;;;9.80;6.93;;;14.90;99.90;;;;;;7370577;19;20102;-48
2022/10/23 09:26:48;;;;;;;10.68;7.68;;;14.90;99.90;;;;;;7376686;19;20454;-46
2022/10/23 09:29:30;;;;;;;8.35;6.72;;;14.90;99.90;;;;;;7374666;19;20010;-48
2022/10/23 09:31:59;;;;;;;9.50;6.60;;;14.90;99.90;;;;;;7373557;19;20031;-47
2022/10/23 09:34:27;;;;;;;9.30;6.88;;;15.10;99.90;;;;;;7371536;19;20027;-49
2022/10/23 09:36:59;;;;;;;10.45;6.10;;;15.10;99.90;;;;;;7372918;19;20035;-53
2022/10/23 09:39:35;;;;;;;12.65;6.07;;;15.20;99.90;;;;;;7369968;19;20039;-51
2022/10/23 09:42:24;;;;;;;8.88;5.80;;;15.30;99.90;;;;;;7369402;19;20035;-50
2022/10/23 09:44:53;;;;;;;10.43;5.78;;;15.40;99.90;;;;;;7372534;19;20105;-48
2022/10/23 09:47:23;;;;;;;10.27;5.68;;;15.40;99.90;;;;;;7370390;19;20101;-48
2022/10/23 09:49:52;;;;;;;11.63;5.60;;;15.40;99.90;;;;;;7374059;19;20017;-47
2022/10/23 09:52:34;;;;;;;9.35;5.53;;;15.40;99.90;;;;;;7367492;19;20019;-52
2022/10/23 09:55:14;;;;;;;11.98;6.28;;;15.40;99.90;;;;;;7370092;19;20028;-49
2022/10/23 09:57:43;;;;;;;8.02;5.22;;;15.50;99.90;;;;;;7369169;19;20040;-47
2022/10/23 10:00:26;;;;;;;9.25;5.85;;;15.50;99.90;;;;;;7372131;19;20018;-48
2022/10/23 10:02:58;;;;;;;8.20;5.72;;;15.60;99.90;;;;;;7371664;19;20022;-49
2022/10/23 10:06:03;;;;;;;10.27;5.65;;;15.80;99.90;;;;;;7372743;19;20022;-44
2022/10/23 10:08:45;;;;;;;8.65;5.38;;;15.90;99.90;;;;;;7369234;19;20457;-47
2022/10/23 10:11:11;;;;;;;9.65;5.95;;;15.90;99.90;;;;;;7374599;19;20011;-44
2022/10/23 10:14:01;;;;;;;7.07;5.68;;;16.00;99.90;;;;;;7368031;19;20500;-48
2022/10/23 10:16:41;;;;;;;8.45;5.50;;;16.10;99.90;;;;;;7368949;19;20022;-47
2022/10/23 10:19:28;;;;;;;7.80;5.03;;;16.10;99.90;;;;;;7361520;19;20383;-47
2022/10/23 10:21:57;;;;;;;10.70;6.13;;;16.10;99.90;;;;;;7366344;19;20100;-48
2022/10/23 10:24:43;;;;;;;11.85;9.85;;;16.10;99.90;;;;;;7372511;19;20019;-45
2022/10/23 10:27:17;;;;;;;6.55;4.32;;;16.30;99.90;;;;;;7372129;19;20022;-48
2022/10/23 10:30:04;;;;;;;9.15;5.43;;;16.80;99.90;;;;;;7373956;19;20018;-49
2022/10/23 10:33:02;;;;;;;9.07;4.53;;;17.20;99.90;;;;;;7370135;19;20025;-47
2022/10/23 10:35:51;;;;;;;7.28;4.05;;;17.40;99.90;;;;;;7367871;19;20022;-46
2022/10/23 10:38:40;;;;;;;9.68;5.63;;;17.20;99.90;;;;;;7361399;19;20086;-49
2022/10/23 10:41:27;;;;;;;11.80;4.40;;;16.80;99.90;;;;;;7363634;19;20034;-45
2022/10/23 10:44:18;;;;;;;9.30;4.15;;;16.70;99.90;;;;;;7364693;19;20022;-48
2022/10/23 10:46:57;;;;;;;7.85;5.28;;;16.60;99.90;;;;;;7365114;19;20018;-47
2022/10/23 10:49:45;;;;;;;9.88;6.35;;;16.50;99.90;;;;;;7357573;19;20499;-45
2022/10/23 10:53:02;;;;;;;10.77;4.97;;;16.30;99.90;;;;;;7359014;19;20026;-48
2022/10/23 10:55:36;;;;;;;7.05;3.97;;;16.30;99.90;;;;;;7356275;19;20022;-45
2022/10/23 10:58:39;;;;;;;9.25;4.90;;;16.20;99.90;;;;;;7363676;19;20018;-47
2022/10/23 11:01:29;;;;;;;7.93;4.50;;;16.10;99.90;;;;;;7347906;19;20039;-46
2022/10/23 11:04:10;;;;;;;8.70;4.10;;;16.10;99.90;;;;;;7369236;19;20019;-49
2022/10/23 11:06:38;;;;;;;9.13;4.80;;;16.00;99.90;;;;;;7365093;19;20025;-47
2022/10/23 11:09:15;;;;;;;7.30;5.75;;;15.90;99.90;;;;;;7365422;19;20500;-47
2022/10/23 11:11:42;;;;;;;11.73;8.95;;;15.90;99.90;;;;;;7368362;19;20665;-46
2022/10/23 11:14:21;;;;;;;7.20;5.00;;;15.80;99.90;;;;;;7363359;19;20015;-46
2022/10/23 11:17:10;;;;;;;8.07;5.10;;;15.80;99.90;;;;;;7368348;19;20772;-50
2022/10/23 11:19:42;;;;;;;9.30;4.82;;;15.80;99.90;;;;;;7364695;19;20022;-49
2022/10/23 11:22:14;;;;;;;11.63;9.10;;;15.70;99.90;;;;;;7365507;19;20023;-45
2022/10/23 11:24:49;;;;;;;9.13;4.40;;;15.70;99.90;;;;;;7364892;19;20022;-44
2022/10/23 11:27:45;;;;;;;8.02;4.95;;;15.70;99.90;;;;;;7359890;19;20043;-45
2022/10/23 11:30:43;;;;;;;9.85;4.88;;;15.60;99.90;;;;;;7361088;19;20022;-46
2022/10/23 11:33:51;;;;;;;7.10;3.75;;;15.60;99.90;;;;;;7364537;19;20643;-46
2022/10/23 11:36:41;;;;;;;8.48;4.65;;;15.60;99.90;;;;;;7363078;19;20051;-48
2022/10/23 11:39:20;;;;;;;7.30;4.05;;;15.70;99.90;;;;;;7365200;19;20021;-46
2022/10/23 11:41:55;;;;;;;6.40;4.38;;;15.70;99.90;;;;;;7368238;19;20030;-48
2022/10/23 11:44:37;;;;;;;6.47;3.97;;;15.80;99.90;;;;;;7365532;19;20018;-48
2022/10/23 11:47:24;;;;;;;7.55;4.45;;;15.80;99.90;;;;;;7365430;19;20408;-50
2022/10/23 11:50:03;;;;;;;8.55;5.68;;;15.80;99.90;;;;;;7367326;19;20018;-47
2022/10/23 11:52:29;;;;;;;6.53;4.93;;;15.80;99.90;;;;;;7359778;19;20321;-46
2022/10/23 11:55:14;;;;;;;7.53;4.35;;;15.90;99.90;;;;;;7359614;19;20317;-47
2022/10/23 11:57:41;;;;;;;9.77;4.70;;;15.90;99.90;;;;;;7360392;19;20015;-45
2022/10/23 12:00:21;;;;;;;7.18;3.55;;;15.90;99.90;;;;;;7354401;19;20593;-46
2022/10/23 12:02:54;;;;;;;6.97;4.10;;;16.00;99.90;;;;;;7366276;19;20022;-49
2022/10/23 12:05:29;;;;;;;6.82;3.70;;;16.00;99.90;;;;;;7359905;19;20015;-48
2022/10/23 12:07:58;;;;;;;7.88;4.10;;;16.00;99.90;;;;;;7355982;19;20074;-48
2022/10/23 12:10:34;;;;;;;11.35;6.22;;;16.00;99.90;;;;;;7361844;19;20405;-48
2022/10/23 12:13:05;;;;;;;10.10;4.47;;;16.00;99.90;;;;;;7359708;19;20018;-46
2022/10/23 12:15:35;;;;;;;5.70;3.75;;;16.10;99.90;;;;;;7361878;19;20018;-48
2022/10/23 12:18:14;;;;;;;11.30;6.68;;;16.10;99.90;;;;;;7360856;19;20040;-48
2022/10/23 12:20:56;;;;;;;9.05;5.80;;;16.20;99.90;;;;;;7368360;19;20018;-48
2022/10/23 12:23:30;;;;;;;7.22;3.70;;;16.20;99.90;;;;;;7363578;19;20062;-47
2022/10/23 12:26:00;;;;;;;6.28;3.55;;;16.20;99.90;;;;;;7371752;19;20025;-49
2022/10/23 12:28:32;;;;;;;6.68;4.18;;;16.30;99.90;;;;;;7369018;19;20015;-49
2022/10/23 12:31:10;;;;;;;9.57;3.50;;;16.30;99.90;;;;;;7374890;19;20018;-48
2022/10/23 12:33:52;;;;;;;7.45;3.90;;;16.30;99.90;;;;;;7373143;19;20029;-47
2022/10/23 12:36:46;;;;;;;5.30;2.85;;;16.30;99.90;;;;;;7373514;19;20638;-47
2022/10/23 12:39:29;;;;;;;6.68;3.83;;;16.30;99.90;;;;;;7368510;19;20524;-45
2022/10/23 12:41:56;;;;;;;8.00;3.17;;;16.20;99.90;;;;;;7375266;19;20498;-42
2022/10/23 12:44:24;;;;;;;7.85;3.67;;;16.20;99.90;;;;;;7371142;19;20018;-47
2022/10/23 12:46:56;;;;;;;5.63;3.40;;;16.20;99.90;;;;;;7370332;19;20046;-47
2022/10/23 12:49:26;;;;;;;4.75;3.30;;;16.20;99.90;;;;;;7371305;19;20746;-45
2022/10/23 12:52:02;;;;;;;7.38;3.88;;;16.20;99.90;;;;;;7373853;19;20026;-46
2022/10/23 12:54:37;;;;;;;6.47;3.85;;;16.20;99.90;;;;;;7374271;19;20463;-49
2022/10/23 12:57:22;;;;;;;8.48;4.03;;;16.10;99.90;;;;;;7371073;19;20465;-50
2022/10/23 12:59:52;;;;;;;5.20;2.78;;;16.10;99.90;;;;;;7375329;19;20082;-47
2022/10/23 13:02:27;;;;;;;7.18;4.18;;;16.10;99.90;;;;;;7373434;19;20015;-46
2022/10/23 13:04:55;;;;;;;6.00;3.38;;;16.10;99.90;;;;;;7375728;19;20406;-44
2022/10/23 13:07:28;;;;;;;5.47;3.33;;;16.10;99.90;;;;;;7371624;19;20022;-49
2022/10/23 13:09:58;;;;;;;5.45;3.80;;;16.10;99.90;;;;;;7375201;19;20042;-49
2022/10/23 13:12:34;;;;;;;9.13;4.88;;;16.10;99.90;;;;;;7369782;19;20031;-50